createdAt,value
2018-06-27T00:01:34.137Z,4.30
2018-06-27T00:04:02.222Z,4.80
2018-06-27T00:06:30.231Z,5.65
2018-06-27T00:08:58.166Z,6.45
2018-06-27T00:11:27.125Z,6.58
2018-06-27T00:13:55.098Z,6.87
2018-06-27T00:16:23.165Z,6.83
2018-06-27T00:18:51.279Z,7.37
2018-06-27T00:21:19.262Z,7.17
2018-06-27T00:23:47.339Z,6.30
2018-06-27T00:26:15.330Z,6.95
2018-06-27T00:28:43.384Z,7.03
2018-06-27T00:31:11.755Z,4.67
2018-06-27T00:33:39.702Z,5.15
2018-06-27T00:36:07.757Z,4.42
2018-06-27T00:38:35.755Z,4.78
2018-06-27T00:41:03.937Z,5.10
2018-06-27T00:43:31.886Z,4.45
2018-06-27T00:46:00.230Z,5.05
2018-06-27T00:48:28.286Z,5.05
2018-06-27T00:50:56.336Z,4.45
2018-06-27T00:53:29.663Z,4.40
2018-06-27T00:55:57.689Z,4.55
2018-06-27T00:58:25.725Z,4.80
2018-06-27T01:00:53.915Z,5.08
2018-06-27T01:03:21.901Z,5.10
2018-06-27T01:05:49.906Z,5.10
2018-06-27T01:08:17.941Z,5.00
2018-06-27T01:10:46.050Z,4.92
2018-06-27T01:13:14.076Z,5.10
2018-06-27T01:15:42.016Z,4.37
2018-06-27T01:18:10.468Z,4.95
2018-06-27T01:20:38.527Z,4.10
2018-06-27T01:23:07.093Z,3.95
2018-06-27T01:25:35.059Z,4.40
2018-06-27T01:28:03.002Z,4.08
2018-06-27T01:30:31.303Z,4.17
2018-06-27T01:32:59.373Z,3.70
2018-06-27T01:35:27.445Z,3.75
2018-06-27T01:37:55.820Z,3.70
2018-06-27T01:40:25.489Z,3.55
2018-06-27T01:42:54.009Z,3.67
2018-06-27T01:45:22.499Z,3.20
2018-06-27T01:47:56.308Z,3.25
2018-06-27T01:50:24.990Z,3.10
2018-06-27T01:52:53.633Z,3.20
2018-06-27T01:55:23.508Z,2.70
2018-06-27T01:57:52.043Z,2.70
2018-06-27T02:00:22.155Z,2.95
2018-06-27T02:02:50.665Z,2.87
2018-06-27T02:05:19.154Z,3.30
2018-06-27T02:07:48.865Z,2.60
2018-06-27T02:10:20.057Z,2.98
2018-06-27T02:12:49.616Z,2.60
2018-06-27T02:15:17.872Z,2.20
2018-06-27T02:17:46.796Z,2.20
2018-06-27T02:20:15.438Z,2.25
2018-06-27T02:22:43.922Z,2.10
2018-06-27T02:25:12.033Z,2.30
2018-06-27T02:27:40.065Z,1.90
2018-06-27T02:30:08.159Z,2.08
2018-06-27T02:32:36.668Z,2.10
2018-06-27T02:35:05.030Z,1.77
2018-06-27T02:37:33.124Z,1.87
2018-06-27T02:40:01.360Z,2.00
2018-06-27T02:42:29.815Z,2.00
2018-06-27T02:44:58.102Z,2.02
2018-06-27T02:47:26.174Z,1.80
2018-06-27T02:49:54.543Z,2.00
2018-06-27T02:52:22.526Z,2.17
2018-06-27T02:54:50.530Z,2.15
2018-06-27T02:57:18.540Z,2.10
2018-06-27T02:59:46.765Z,2.47
2018-06-27T03:02:14.744Z,2.47
2018-06-27T03:04:42.782Z,2.27
2018-06-27T03:07:11.241Z,2.40
2018-06-27T03:09:39.664Z,2.67
2018-06-27T03:12:07.680Z,2.22
2018-06-27T03:14:35.721Z,2.47
2018-06-27T03:17:03.756Z,2.60
2018-06-27T03:19:31.807Z,2.98
2018-06-27T03:21:59.799Z,3.05
2018-06-27T03:24:28.116Z,2.60
2018-06-27T03:26:56.134Z,2.50
2018-06-27T03:29:24.194Z,2.70
2018-06-27T03:31:52.264Z,2.85
2018-06-27T03:34:20.275Z,2.70
2018-06-27T03:36:48.448Z,2.90
2018-06-27T03:39:16.480Z,2.80
2018-06-27T03:41:44.456Z,2.60
2018-06-27T03:44:12.903Z,2.95
2018-06-27T03:46:40.823Z,2.83
2018-06-27T03:49:08.861Z,3.02
2018-06-27T03:51:36.844Z,3.40
2018-06-27T03:54:05.289Z,3.05
2018-06-27T03:56:33.284Z,2.87
2018-06-27T03:59:01.297Z,3.00
2018-06-27T04:01:29.738Z,2.90
2018-06-27T04:03:58.633Z,2.90
2018-06-27T04:06:26.584Z,2.83
2018-06-27T04:08:54.588Z,2.90
2018-06-27T04:11:22.649Z,2.92
2018-06-27T04:13:50.620Z,2.90
2018-06-27T04:16:18.598Z,2.70
2018-06-27T04:18:46.597Z,3.10
2018-06-27T04:21:14.667Z,3.05
2018-06-27T04:23:42.703Z,2.87
2018-06-27T04:26:10.705Z,3.27
2018-06-27T04:28:39.466Z,3.87
2018-06-27T04:31:07.548Z,3.17
2018-06-27T04:33:35.548Z,3.42
2018-06-27T04:36:03.941Z,3.55
2018-06-27T04:38:32.054Z,3.58
2018-06-27T04:41:00.092Z,3.22
2018-06-27T04:43:28.019Z,3.22
2018-06-27T04:45:56.076Z,3.30
2018-06-27T04:48:24.125Z,2.98
2018-06-27T04:50:52.144Z,3.40
2018-06-27T04:53:20.204Z,4.45
2018-06-27T04:55:48.222Z,3.52
2018-06-27T04:58:16.226Z,3.75
2018-06-27T05:00:52.529Z,3.33
2018-06-27T05:03:21.841Z,3.33
2018-06-27T05:05:49.863Z,3.50
2018-06-27T05:08:18.484Z,3.60
2018-06-27T05:10:46.518Z,3.37
2018-06-27T05:13:14.567Z,3.70
2018-06-27T05:15:42.523Z,3.60
2018-06-27T05:18:10.580Z,3.60
2018-06-27T05:20:38.646Z,3.75
2018-06-27T05:23:06.754Z,3.58
2018-06-27T05:25:34.965Z,3.92
2018-06-27T05:28:02.995Z,4.55
2018-06-27T05:30:31.107Z,7.45
2018-06-27T05:32:59.001Z,3.72
2018-06-27T05:35:27.026Z,4.00
2018-06-27T05:37:55.156Z,4.25
2018-06-27T05:40:23.219Z,3.50
2018-06-27T05:42:51.492Z,3.27
2018-06-27T05:45:19.632Z,6.17
2018-06-27T05:47:47.606Z,19.02
2018-06-27T05:50:15.555Z,3.08
2018-06-27T05:52:43.598Z,3.00
2018-06-27T05:55:11.760Z,3.22
2018-06-27T05:57:40.755Z,3.00
2018-06-27T06:00:09.908Z,2.77
2018-06-27T06:02:37.833Z,3.27
2018-06-27T06:05:08.213Z,3.17
2018-06-27T06:07:36.802Z,3.22
2018-06-27T06:10:07.647Z,3.70
2018-06-27T06:12:35.687Z,3.75
2018-06-27T06:15:04.967Z,3.42
2018-06-27T06:17:33.150Z,3.67
2018-06-27T06:20:01.226Z,3.60
2018-06-27T06:22:29.670Z,3.72
2018-06-27T06:24:57.749Z,3.55
2018-06-27T06:27:25.804Z,3.98
2018-06-27T06:29:53.754Z,3.60
2018-06-27T06:32:21.709Z,3.98
2018-06-27T06:34:49.735Z,4.30
2018-06-27T06:37:17.727Z,4.83
2018-06-27T06:39:46.181Z,4.65
2018-06-27T06:42:14.349Z,4.58
2018-06-27T06:44:42.971Z,5.37
2018-06-27T06:47:10.996Z,5.25
2018-06-27T06:49:39.493Z,5.85
2018-06-27T06:52:07.572Z,6.30
2018-06-27T06:54:35.514Z,5.72
2018-06-27T06:57:03.599Z,4.70
2018-06-27T06:59:31.551Z,5.10
2018-06-27T07:01:59.524Z,5.75
2018-06-27T07:04:27.493Z,5.53
2018-06-27T07:06:55.623Z,5.15
2018-06-27T07:09:23.792Z,5.87
2018-06-27T07:11:51.765Z,5.05
2018-06-27T07:14:19.869Z,5.42
2018-06-27T07:16:47.995Z,4.90
2018-06-27T07:19:15.995Z,5.08
2018-06-27T07:21:44.460Z,5.10
2018-06-27T07:24:12.820Z,5.45
2018-06-27T07:26:41.853Z,5.70
2018-06-27T07:29:09.965Z,5.10
2018-06-27T07:31:38.154Z,5.50
2018-06-27T07:34:06.195Z,5.75
2018-06-27T07:36:34.522Z,5.62
2018-06-27T07:39:03.050Z,5.58
2018-06-27T07:41:32.446Z,5.72
2018-06-27T07:44:00.445Z,5.85
2018-06-27T07:46:29.947Z,5.97
2018-06-27T07:48:58.061Z,7.03
2018-06-27T07:51:26.111Z,6.25
2018-06-27T07:53:54.361Z,5.87
2018-06-27T07:56:22.479Z,6.50
2018-06-27T07:58:50.692Z,9.70
2018-06-27T08:01:18.752Z,7.12
2018-06-27T08:03:46.970Z,6.78
2018-06-27T08:06:14.987Z,6.28
2018-06-27T08:08:43.675Z,5.97
2018-06-27T08:11:11.861Z,7.12
2018-06-27T08:13:39.904Z,6.10
2018-06-27T08:16:07.951Z,7.15
2018-06-27T08:18:43.506Z,5.97
2018-06-27T08:21:11.638Z,6.00
2018-06-27T08:23:39.868Z,6.58
2018-06-27T08:28:59.636Z,6.87
2018-06-27T08:31:27.762Z,8.90
2018-06-27T08:33:55.832Z,8.48
2018-06-27T08:36:23.873Z,7.47
2018-06-27T08:38:51.876Z,7.35
2018-06-27T08:41:20.150Z,8.23
2018-06-27T08:43:48.322Z,6.60
2018-06-27T08:46:16.438Z,7.22
2018-06-27T08:48:44.477Z,7.10
2018-06-27T08:51:12.567Z,7.50
2018-06-27T08:53:40.722Z,7.20
2018-06-27T08:56:10.762Z,6.87
2018-06-27T08:58:38.763Z,6.42
2018-06-27T09:01:06.847Z,6.10
2018-06-27T09:03:34.776Z,6.85
2018-06-27T09:06:02.787Z,6.40
2018-06-27T09:08:30.867Z,6.30
2018-06-27T09:10:59.052Z,6.65
2018-06-27T09:13:27.034Z,6.20
2018-06-27T09:15:55.091Z,6.00
2018-06-27T09:18:23.074Z,6.45
2018-06-27T09:20:51.199Z,6.40
2018-06-27T09:23:19.252Z,6.60
2018-06-27T09:25:47.594Z,6.47
2018-06-27T09:28:15.652Z,6.12
2018-06-27T09:30:43.638Z,14.13
2018-06-27T09:33:11.616Z,6.12
2018-06-27T09:35:39.818Z,7.03
2018-06-27T09:38:08.257Z,6.22
2018-06-27T09:40:36.220Z,6.87
2018-06-27T09:43:04.260Z,5.87
2018-06-27T09:45:32.249Z,6.45
2018-06-27T09:48:00.417Z,5.83
2018-06-27T09:50:28.783Z,6.17
2018-06-27T09:52:56.942Z,6.33
2018-06-27T09:55:24.962Z,6.12
2018-06-27T09:57:53.139Z,7.15
2018-06-27T10:00:26.761Z,6.80
2018-06-27T10:02:54.879Z,7.30
2018-06-27T10:05:22.810Z,6.67
2018-06-27T10:07:51.657Z,5.53
2018-06-27T10:10:19.830Z,6.92
2018-06-27T10:12:47.827Z,6.17
2018-06-27T10:15:16.109Z,6.95
2018-06-27T10:17:44.080Z,6.58
2018-06-27T10:20:12.375Z,6.33
2018-06-27T10:22:40.557Z,7.47
2018-06-27T10:25:08.708Z,6.67
2018-06-27T10:27:36.860Z,5.67
2018-06-27T10:30:05.528Z,5.90
2018-06-27T10:32:33.513Z,5.60
2018-06-27T10:35:01.533Z,5.30
2018-06-27T10:37:29.496Z,4.97
2018-06-27T10:39:57.440Z,4.45
2018-06-27T10:42:25.645Z,4.33
2018-06-27T10:44:53.752Z,4.92
2018-06-27T10:47:21.860Z,4.42
2018-06-27T10:49:50.058Z,3.62
2018-06-27T10:52:18.225Z,3.35
2018-06-27T10:54:54.164Z,3.92
2018-06-27T10:57:23.339Z,4.00
2018-06-27T10:59:52.559Z,3.98
2018-06-27T11:02:21.257Z,4.25
2018-06-27T11:04:49.219Z,4.58
2018-06-27T11:07:17.190Z,4.62
2018-06-27T11:09:45.253Z,4.50
2018-06-27T11:12:13.207Z,4.62
2018-06-27T11:14:41.257Z,4.75
2018-06-27T11:17:09.352Z,5.28
2018-06-27T11:19:37.543Z,4.85
2018-06-27T11:22:05.621Z,5.12
2018-06-27T11:24:33.683Z,4.70
2018-06-27T11:27:01.752Z,4.40
2018-06-27T11:29:29.902Z,4.40
2018-06-27T11:31:58.335Z,4.05
2018-06-27T11:34:26.412Z,4.03
2018-06-27T11:36:54.368Z,12.43
2018-06-27T11:39:23.008Z,10.32
2018-06-27T11:41:51.831Z,4.87
2018-06-27T11:44:19.961Z,4.87
2018-06-27T11:46:48.818Z,4.20
2018-06-27T11:49:16.817Z,4.37
2018-06-27T11:51:45.403Z,4.78
2018-06-27T11:54:13.974Z,4.20
2018-06-27T11:56:42.069Z,3.75
2018-06-27T11:59:10.026Z,4.42
2018-06-27T12:01:38.007Z,4.47
2018-06-27T12:04:06.034Z,4.40
2018-06-27T12:06:34.211Z,4.30
2018-06-27T12:09:02.605Z,3.90
2018-06-27T12:11:30.612Z,4.50
2018-06-27T12:13:58.641Z,4.62
2018-06-27T12:16:27.216Z,5.03
2018-06-27T12:18:55.293Z,6.20
2018-06-27T12:21:23.567Z,6.20
2018-06-27T12:23:51.566Z,6.62
2018-06-27T12:26:19.778Z,6.65
2018-06-27T12:28:47.698Z,7.22
2018-06-27T12:31:15.974Z,7.08
2018-06-27T12:33:43.943Z,8.28
2018-06-27T12:36:13.332Z,8.85
2018-06-27T12:38:41.368Z,9.75
2018-06-27T12:41:09.416Z,8.70
2018-06-27T12:43:37.424Z,7.85
2018-06-27T12:46:05.508Z,8.95
2018-06-27T12:48:33.561Z,8.68
2018-06-27T12:51:01.583Z,8.40
2018-06-27T12:53:29.498Z,7.50
2018-06-27T12:55:57.853Z,7.65
2018-06-27T12:58:26.012Z,7.30
2018-06-27T13:00:54.096Z,6.83
2018-06-27T13:03:22.143Z,7.53
2018-06-27T13:05:50.245Z,8.13
2018-06-27T13:08:18.324Z,8.38
2018-06-27T13:10:46.766Z,8.28
2018-06-27T13:13:14.833Z,7.90
2018-06-27T13:15:42.944Z,8.00
2018-06-27T13:18:10.886Z,8.00
2018-06-27T13:20:38.921Z,7.87
2018-06-27T13:23:07.055Z,6.28
2018-06-27T13:25:35.154Z,6.78
2018-06-27T13:28:03.152Z,7.42
2018-06-27T13:30:31.074Z,5.80
2018-06-27T13:32:59.076Z,6.45
2018-06-27T13:35:27.212Z,7.12
2018-06-27T13:37:55.434Z,7.28
2018-06-27T13:40:23.426Z,7.47
2018-06-27T13:42:51.504Z,6.58
2018-06-27T13:45:19.537Z,6.00
2018-06-27T13:47:47.503Z,5.90
2018-06-27T13:50:15.521Z,6.45
2018-06-27T13:52:43.784Z,6.15
2018-06-27T13:55:11.928Z,6.30
2018-06-27T13:57:39.848Z,5.97
2018-06-27T14:00:08.175Z,5.65
2018-06-27T14:02:36.273Z,5.58
2018-06-27T14:05:04.899Z,6.20
2018-06-27T14:07:33.558Z,5.67
2018-06-27T14:10:02.060Z,5.37
2018-06-27T14:12:30.121Z,6.20
2018-06-27T14:14:59.278Z,6.33
2018-06-27T14:17:27.777Z,6.35
2018-06-27T14:19:56.080Z,6.30
2018-06-27T14:22:24.264Z,6.47
2018-06-27T14:24:52.940Z,7.08
2018-06-27T14:27:21.524Z,7.10
2018-06-27T14:29:49.637Z,7.85
2018-06-27T14:32:17.632Z,7.22
2018-06-27T14:34:45.762Z,7.08
2018-06-27T14:37:13.772Z,8.05
2018-06-27T14:39:41.801Z,7.55
2018-06-27T14:42:09.866Z,7.03
2018-06-27T14:44:37.870Z,8.45
2018-06-27T14:47:06.046Z,9.95
2018-06-27T14:49:34.528Z,8.78
2018-06-27T14:52:02.656Z,8.40
2018-06-27T14:54:30.617Z,8.90
2018-06-27T14:56:58.628Z,12.50
2018-06-27T14:59:26.698Z,13.60
2018-06-27T15:01:54.641Z,14.38
2018-06-27T15:04:22.721Z,23.02
2018-06-27T15:06:51.038Z,18.80
2018-06-27T15:09:19.022Z,17.40
2018-06-27T15:11:47.116Z,12.95
2018-06-27T15:14:15.136Z,10.65
2018-06-27T15:16:43.131Z,8.55
2018-06-27T15:19:11.147Z,7.35
2018-06-27T15:21:39.233Z,6.50
2018-06-27T15:24:07.322Z,5.65
2018-06-27T15:26:35.382Z,7.67
2018-06-27T15:29:03.379Z,9.60
2018-06-27T15:31:31.452Z,6.37
2018-06-27T15:33:59.486Z,13.45
2018-06-27T15:36:27.701Z,9.33
2018-06-27T15:38:55.704Z,8.28
2018-06-27T15:41:24.424Z,10.05
2018-06-27T15:43:52.766Z,9.15
2018-06-27T15:46:20.826Z,9.95
2018-06-27T15:48:48.928Z,6.87
2018-06-27T15:51:17.007Z,9.13
2018-06-27T15:53:45.110Z,11.40
2018-06-27T15:56:13.125Z,9.40
2018-06-27T15:58:41.480Z,8.35
2018-06-27T16:01:09.939Z,9.65
2018-06-27T16:03:38.042Z,7.10
2018-06-27T16:06:07.065Z,5.80
2018-06-27T16:08:35.012Z,6.12
2018-06-27T16:11:03.010Z,6.37
2018-06-27T16:13:31.045Z,7.85
2018-06-27T16:15:59.308Z,9.68
2018-06-27T16:18:27.560Z,10.95
2018-06-27T16:20:55.795Z,6.20
2018-06-27T16:23:23.704Z,5.83
2018-06-27T16:25:51.721Z,5.12
2018-06-27T16:28:19.727Z,5.22
2018-06-27T16:30:47.894Z,5.47
2018-06-27T16:33:15.989Z,7.87
2018-06-27T16:35:44.008Z,6.67
2018-06-27T16:38:12.219Z,6.40
2018-06-27T16:40:40.871Z,6.50
2018-06-27T16:43:08.941Z,8.13
2018-06-27T16:45:36.975Z,7.83
2018-06-27T16:48:05.970Z,7.85
2018-06-27T16:50:34.015Z,7.87
2018-06-27T16:53:01.917Z,8.43
2018-06-27T16:55:29.942Z,7.12
2018-06-27T16:57:57.899Z,8.30
2018-06-27T17:00:25.951Z,6.87
2018-06-27T17:02:54.048Z,7.15
2018-06-27T17:05:22.046Z,6.62
2018-06-27T17:07:50.884Z,7.40
2018-06-27T17:10:18.836Z,6.08
2018-06-27T17:12:47.274Z,6.83
2018-06-27T17:15:16.666Z,7.30
2018-06-27T17:17:44.828Z,6.62
2018-06-27T17:20:12.976Z,6.60
2018-06-27T17:22:40.922Z,6.22
2018-06-27T17:25:08.925Z,6.90
2018-06-27T17:27:36.990Z,5.33
2018-06-27T17:30:05.278Z,5.87
2018-06-27T17:32:33.745Z,5.70
2018-06-27T17:35:01.823Z,5.72
2018-06-27T17:37:29.732Z,6.28
2018-06-27T17:39:57.683Z,5.75
2018-06-27T17:42:25.767Z,6.35
2018-06-27T17:44:53.826Z,6.12
2018-06-27T17:47:21.775Z,6.37
2018-06-27T17:49:49.848Z,5.90
2018-06-27T17:52:17.778Z,5.90
2018-06-27T17:54:45.675Z,6.50
2018-06-27T17:57:13.748Z,6.28
2018-06-27T17:59:42.044Z,7.12
2018-06-27T18:02:10.095Z,7.20
2018-06-27T18:04:38.430Z,6.37
2018-06-27T18:07:06.461Z,6.65
2018-06-27T18:09:34.729Z,7.10
2018-06-27T18:12:02.747Z,7.60
2018-06-27T18:14:30.771Z,7.50
2018-06-27T18:16:58.861Z,8.30
2018-06-27T18:19:26.890Z,8.93
2018-06-27T18:21:54.935Z,7.37
2018-06-27T18:24:23.002Z,7.55
2018-06-27T18:26:51.010Z,7.97
2018-06-27T18:29:19.319Z,10.05
2018-06-27T18:31:47.392Z,7.62
2018-06-27T18:34:15.388Z,8.18
2018-06-27T18:36:45.554Z,7.92
2018-06-27T18:39:13.527Z,7.55
2018-06-27T18:41:44.243Z,8.43
2018-06-27T18:44:12.554Z,8.05
2018-06-27T18:46:40.568Z,9.88
2018-06-27T18:49:08.592Z,9.10
2018-06-27T18:51:36.672Z,8.30
2018-06-27T18:54:05.648Z,8.50
2018-06-27T18:56:33.708Z,8.75
2018-06-27T18:59:01.741Z,11.55
2018-06-27T19:01:29.862Z,13.30
2018-06-27T19:03:57.935Z,13.48
2018-06-27T19:06:25.993Z,11.43
2018-06-27T19:08:54.040Z,11.57
2018-06-27T19:11:22.104Z,9.03
2018-06-27T19:13:50.317Z,8.83
2018-06-27T19:16:18.306Z,9.18
2018-06-27T19:18:46.373Z,8.13
2018-06-27T19:21:14.397Z,8.38
2018-06-27T19:23:43.056Z,8.25
2018-06-27T19:26:11.106Z,8.78
2018-06-27T19:28:39.302Z,9.08
2018-06-27T19:31:07.219Z,8.15
2018-06-27T19:33:35.212Z,8.90
2018-06-27T19:36:03.659Z,8.98
2018-06-27T19:38:31.986Z,10.60
2018-06-27T19:41:00.107Z,10.55
2018-06-27T19:43:28.482Z,8.48
2018-06-27T19:45:56.412Z,10.32
2018-06-27T19:48:24.416Z,10.88
2018-06-27T19:50:52.476Z,9.48
2018-06-27T19:53:20.619Z,10.88
2018-06-27T19:55:48.666Z,10.85
2018-06-27T19:58:16.803Z,14.38
2018-06-27T20:00:45.865Z,12.82
2018-06-27T20:03:13.880Z,14.10
2018-06-27T20:05:43.475Z,12.15
2018-06-27T20:08:11.327Z,11.05
2018-06-27T20:10:39.503Z,9.80
2018-06-27T20:13:07.476Z,11.63
2018-06-27T20:15:35.552Z,10.75
2018-06-27T20:18:03.644Z,11.22
2018-06-27T20:20:31.739Z,9.50
2018-06-27T20:22:59.647Z,9.33
2018-06-27T20:25:27.699Z,10.43
2018-06-27T20:27:56.061Z,11.08
2018-06-27T20:30:23.901Z,11.50
2018-06-27T20:32:51.852Z,11.75
2018-06-27T20:35:19.778Z,10.30
2018-06-27T20:37:47.760Z,10.93
2018-06-27T20:40:15.744Z,9.65
2018-06-27T20:42:43.810Z,9.95
2018-06-27T20:45:11.795Z,10.68
2018-06-27T20:47:39.941Z,9.90
2018-06-27T20:50:07.877Z,10.08
2018-06-27T20:52:36.025Z,10.20
2018-06-27T20:55:03.905Z,10.48
2018-06-27T20:57:31.864Z,11.85
2018-06-27T20:59:59.786Z,11.83
2018-06-27T21:02:27.785Z,12.20
2018-06-27T21:04:55.735Z,11.70
2018-06-27T21:07:23.753Z,12.82
2018-06-27T21:09:51.702Z,11.78
2018-06-27T21:12:19.637Z,11.43
2018-06-27T21:14:47.622Z,10.58
2018-06-27T21:17:15.536Z,10.00
2018-06-27T21:19:43.528Z,10.25
2018-06-27T21:22:11.550Z,10.03
2018-06-27T21:24:39.454Z,11.97
2018-06-27T21:27:07.508Z,10.50
2018-06-27T21:29:35.445Z,11.30
2018-06-27T21:32:03.438Z,14.35
2018-06-27T21:34:31.511Z,12.15
2018-06-27T21:36:59.423Z,11.22
2018-06-27T21:39:27.391Z,9.40
2018-06-27T21:41:55.331Z,10.85
2018-06-27T21:44:23.289Z,9.58
2018-06-27T21:46:51.270Z,10.75
2018-06-27T21:49:19.267Z,10.30
2018-06-27T21:51:47.263Z,11.12
2018-06-27T21:54:15.222Z,11.35
2018-06-27T21:56:43.153Z,10.15
2018-06-27T21:59:11.031Z,10.58
2018-06-27T22:01:39.688Z,11.20
2018-06-27T22:04:07.844Z,11.35
2018-06-27T22:06:35.886Z,11.18
2018-06-27T22:09:06.045Z,11.95
2018-06-27T22:11:34.152Z,11.38
2018-06-27T22:14:02.121Z,13.75
2018-06-27T22:16:30.215Z,14.58
2018-06-27T22:18:58.294Z,12.33
2018-06-27T22:21:26.382Z,12.40
2018-06-27T22:23:54.735Z,11.85
2018-06-27T22:26:22.796Z,11.80
2018-06-27T22:28:50.945Z,11.48
2018-06-27T22:31:18.985Z,13.03
2018-06-27T22:33:47.127Z,12.10
2018-06-27T22:36:15.130Z,12.35
2018-06-27T22:38:43.245Z,12.28
2018-06-27T22:41:11.331Z,12.10
2018-06-27T22:43:39.456Z,12.18
2018-06-27T22:46:07.731Z,11.50
2018-06-27T22:48:35.766Z,11.73
2018-06-27T22:51:04.571Z,12.03
2018-06-27T22:53:32.666Z,11.88
2018-06-27T22:56:00.700Z,12.23
2018-06-27T22:58:28.671Z,11.75
2018-06-27T23:00:56.746Z,11.75
2018-06-27T23:03:24.728Z,12.50
2018-06-27T23:05:52.775Z,12.23
2018-06-27T23:08:20.781Z,12.13
2018-06-27T23:10:48.726Z,12.33
2018-06-27T23:13:16.701Z,12.58
2018-06-27T23:15:44.682Z,12.58
2018-06-27T23:18:12.695Z,12.07
2018-06-27T23:20:40.943Z,10.30
2018-06-27T23:23:08.986Z,12.50
2018-06-27T23:25:36.998Z,11.43
2018-06-27T23:28:05.013Z,14.87
2018-06-27T23:30:33.093Z,16.02
2018-06-27T23:33:01.185Z,16.77
2018-06-27T23:35:29.223Z,18.35
2018-06-27T23:37:57.235Z,16.60
2018-06-27T23:40:25.191Z,14.85
2018-06-27T23:42:53.435Z,13.28
2018-06-27T23:45:21.536Z,13.28
2018-06-27T23:47:49.659Z,12.30
2018-06-27T23:50:17.815Z,11.68
2018-06-27T23:52:45.780Z,11.95
2018-06-27T23:55:13.866Z,13.62
2018-06-27T23:57:41.930Z,12.88
